Time;durP1;ratioP1;P1;durP2;ratioP2;P2;SDS_P1;SDS_P2;PMS_P1;PMS_P2;Temp;Humidity;BMP_temperature;BMP_pressure;BME280_temperature;BME280_humidity;BME280_pressure;Samples;Min_cycle;Max_cycle;Signal;HPM_P1;HPM_P2
2023/03/16 00:02:09;;;;;;;6.73;4.20;;;7.70;1.00;;;;;;5072969;28;20200;-76
2023/03/16 00:04:36;;;;;;;5.03;4.23;;;7.70;1.00;;;;;;5073020;28;20656;-77
2023/03/16 00:07:03;;;;;;;6.67;4.70;;;7.70;1.00;;;;;;5073077;28;20167;-75
2023/03/16 00:09:32;;;;;;;7.43;5.00;;;7.70;1.00;;;;;;5073079;28;20176;-76
2023/03/16 00:12:04;;;;;;;5.60;4.00;;;7.70;1.00;;;;;;5054651;28;20176;-76
2023/03/16 00:14:30;;;;;;;6.80;4.27;;;7.70;1.00;;;;;;5072624;28;20212;-75
2023/03/16 00:16:56;;;;;;;5.33;4.30;;;7.70;1.00;;;;;;5072981;28;20189;-77
2023/03/16 00:19:22;;;;;;;7.43;4.33;;;7.70;1.00;;;;;;5073058;28;20255;-75
2023/03/16 00:21:50;;;;;;;4.73;3.93;;;7.70;1.00;;;;;;5055054;28;20173;-76
2023/03/16 00:24:19;;;;;;;6.43;4.27;;;7.60;1.00;;;;;;5074091;28;20356;-76
2023/03/16 00:26:46;;;;;;;5.50;4.17;;;7.60;1.00;;;;;;5076843;28;20168;-76
2023/03/16 00:29:12;;;;;;;4.93;4.10;;;7.60;1.00;;;;;;5059144;28;20173;-76
2023/03/16 00:31:42;;;;;;;6.90;4.20;;;7.70;1.00;;;;;;5077041;28;20172;-75
2023/03/16 00:34:11;;;;;;;5.97;4.43;;;7.70;1.00;;;;;;5077039;28;20172;-76
2023/03/16 00:36:37;;;;;;;10.23;4.53;;;7.80;1.00;;;;;;5077077;28;20221;-76
2023/03/16 00:39:06;;;;;;;7.40;3.77;;;7.80;1.00;;;;;;5076966;28;20177;-75
2023/03/16 00:41:36;;;;;;;5.83;3.77;;;7.80;1.00;;;;;;5058724;28;20176;-75
2023/03/16 00:44:03;;;;;;;4.63;3.83;;;7.80;1.00;;;;;;5076622;28;20214;-75
2023/03/16 00:46:29;;;;;;;6.13;3.80;;;7.90;1.00;;;;;;5076809;28;20222;-77
2023/03/16 00:48:58;;;;;;;3.93;3.53;;;7.90;1.00;;;;;;5076730;28;20172;-75
2023/03/16 00:51:24;;;;;;;4.97;3.60;;;7.90;1.00;;;;;;5076620;28;20204;-75
2023/03/16 00:53:49;;;;;;;4.77;3.60;;;7.90;1.00;;;;;;5076658;28;20250;-75
2023/03/16 00:56:16;;;;;;;4.00;3.60;;;7.80;1.00;;;;;;5076409;28;20179;-75
2023/03/16 00:58:44;;;;;;;5.57;3.40;;;7.80;1.00;;;;;;5076692;28;20649;-75
2023/03/16 01:01:16;;;;;;;4.73;3.47;;;7.80;1.00;;;;;;5076385;28;20169;-75
2023/03/16 01:03:42;;;;;;;4.57;3.53;;;7.90;1.00;;;;;;5076604;28;20223;-76
2023/03/16 01:06:12;;;;;;;5.73;3.70;;;7.90;1.00;;;;;;5076529;28;20276;-76
2023/03/16 01:08:38;;;;;;;6.03;3.87;;;7.80;1.00;;;;;;5076174;28;20219;-75
2023/03/16 01:11:06;;;;;;;4.07;3.60;;;7.90;1.00;;;;;;5076445;28;20251;-76
2023/03/16 01:13:32;;;;;;;7.83;4.10;;;7.90;1.00;;;;;;5058326;28;20169;-76
2023/03/16 01:15:59;;;;;;;4.40;4.03;;;7.80;1.00;;;;;;5076073;28;20223;-76
2023/03/16 01:18:26;;;;;;;4.17;3.70;;;7.90;1.00;;;;;;5076338;28;20301;-75
2023/03/16 01:20:52;;;;;;;5.87;3.80;;;7.90;1.00;;;;;;5058261;28;20520;-76
2023/03/16 01:23:19;;;;;;;5.43;3.53;;;8.00;1.00;;;;;;5075894;28;20655;-76
2023/03/16 01:25:52;;;;;;;7.20;3.80;;;8.00;1.00;;;;;;5076128;28;20160;-75
2023/03/16 01:28:23;;;;;;;5.80;3.67;;;8.00;1.00;;;;;;5076355;28;20181;-75
2023/03/16 01:30:52;;;;;;;5.57;3.67;;;7.90;1.00;;;;;;5076149;28;20173;-75
2023/03/16 01:33:19;;;;;;;5.00;3.50;;;7.90;1.00;;;;;;5058144;28;20272;-75
2023/03/16 01:35:52;;;;;;;3.67;3.37;;;7.90;1.00;;;;;;5075642;28;20182;-76
2023/03/16 01:38:18;;;;;;;6.57;3.73;;;7.90;1.00;;;;;;5075470;28;20176;-76
2023/03/16 01:40:44;;;;;;;5.23;3.20;;;7.80;1.00;;;;;;5057907;28;20173;-76
2023/03/16 01:43:10;;;;;;;4.07;3.47;;;7.90;1.00;;;;;;5075916;28;20301;-76
2023/03/16 01:46:03;;;;;;;6.20;3.80;;;7.80;1.00;;;;;;5075534;28;20176;-76
2023/03/16 01:48:36;;;;;;;5.70;3.53;;;7.90;1.00;;;;;;5075556;28;20171;-76
2023/03/16 01:51:10;;;;;;;8.03;3.80;;;7.80;1.00;;;;;;5075682;28;20164;-75
2023/03/16 01:53:38;;;;;;;3.80;3.27;;;7.80;1.00;;;;;;5075302;28;20686;-76
2023/03/16 01:56:07;;;;;;;4.77;3.23;;;7.80;1.00;;;;;;5075463;28;20177;-75
2023/03/16 01:58:37;;;;;;;6.23;3.50;;;7.90;3.60;;;;;;5075564;28;20168;-76
2023/03/16 02:01:05;;;;;;;5.67;3.40;;;7.80;2.10;;;;;;5075179;28;20172;-75
2023/03/16 02:03:34;;;;;;;4.37;3.17;;;7.80;5.20;;;;;;5075251;28;20211;-75
2023/03/16 02:06:15;;;;;;;3.27;2.80;;;7.80;5.00;;;;;;5075213;28;20189;-75
2023/03/16 02:08:44;;;;;;;3.17;2.97;;;7.80;6.50;;;;;;5057148;28;20173;-75
2023/03/16 02:11:10;;;;;;;4.23;3.37;;;7.70;9.10;;;;;;5075336;28;20187;-75
2023/03/16 02:13:36;;;;;;;5.83;3.00;;;7.70;13.10;;;;;;5075058;28;20175;-75
2023/03/16 02:16:07;;;;;;;3.13;2.83;;;7.70;16.90;;;;;;5074844;28;20571;-75
2023/03/16 02:18:33;;;;;;;7.50;3.27;;;7.70;19.00;;;;;;5075062;28;20160;-75
2023/03/16 02:21:17;;;;;;;5.03;2.73;;;7.60;21.60;;;;;;5074856;28;20230;-75
2023/03/16 02:23:45;;;;;;;5.37;2.80;;;7.60;21.80;;;;;;5074991;28;20200;-75
2023/03/16 02:26:43;;;;;;;5.50;2.80;;;7.60;25.90;;;;;;5074932;28;20204;-76
2023/03/16 02:29:48;;;;;;;5.30;2.80;;;7.50;25.60;;;;;;5075084;28;20169;-75
2023/03/16 02:32:15;;;;;;;3.10;2.80;;;7.40;27.20;;;;;;5067456;28;20230;-75
2023/03/16 02:34:41;;;;;;;4.87;2.70;;;7.50;29.90;;;;;;5074629;28;20176;-75
2023/03/16 02:37:08;;;;;;;6.90;3.13;;;7.40;29.90;;;;;;5074344;28;20632;-76
2023/03/16 02:39:34;;;;;;;5.63;2.70;;;7.50;33.70;;;;;;5074435;28;20172;-75
2023/03/16 02:42:00;;;;;;;3.80;2.73;;;7.50;34.40;;;;;;5074580;28;20229;-76
2023/03/16 02:44:39;;;;;;;5.63;2.77;;;7.50;33.20;;;;;;5074821;28;20176;-76
2023/03/16 02:47:10;;;;;;;3.27;2.83;;;7.50;33.50;;;;;;5073891;28;20255;-75
2023/03/16 02:49:37;;;;;;;4.50;2.30;;;7.50;32.20;;;;;;5074699;28;20723;-76
2023/03/16 02:52:04;;;;;;;4.10;2.77;;;7.50;33.30;;;;;;5073987;28;20176;-75
2023/03/16 02:54:30;;;;;;;4.80;2.53;;;7.50;34.70;;;;;;5074277;28;20176;-75
2023/03/16 02:56:56;;;;;;;4.70;2.70;;;7.50;31.20;;;;;;5074560;28;20194;-76
2023/03/16 02:59:21;;;;;;;4.50;2.97;;;7.50;33.80;;;;;;5056364;28;20640;-76
2023/03/16 03:01:47;;;;;;;4.17;2.53;;;7.50;36.80;;;;;;5074279;28;20218;-74
2023/03/16 03:04:13;;;;;;;4.10;2.47;;;7.50;31.40;;;;;;5074146;28;20208;-75
2023/03/16 03:06:38;;;;;;;4.87;2.50;;;7.50;29.20;;;;;;5073864;28;20210;-75
2023/03/16 03:09:05;;;;;;;5.70;3.43;;;7.50;25.30;;;;;;5074469;28;20658;-75
2023/03/16 03:11:30;;;;;;;4.53;2.60;;;7.50;25.90;;;;;;5074040;28;20172;-76
2023/03/16 03:13:56;;;;;;;2.80;2.50;;;7.50;19.20;;;;;;5074018;28;20183;-76
2023/03/16 03:16:22;;;;;;;5.70;2.40;;;7.60;19.70;;;;;;5074048;28;20182;-75
2023/03/16 03:18:48;;;;;;;5.33;2.70;;;7.60;17.10;;;;;;5056385;28;20532;-75
2023/03/16 03:21:14;;;;;;;3.70;2.60;;;7.50;12.40;;;;;;5073693;28;20173;-77
2023/03/16 03:23:39;;;;;;;4.00;2.60;;;7.60;16.30;;;;;;5073883;28;20639;-75
2023/03/16 03:26:05;;;;;;;4.77;2.80;;;7.60;15.40;;;;;;5074086;28;20168;-75
2023/03/16 03:28:33;;;;;;;4.77;2.90;;;7.50;16.40;;;;;;5073633;28;20173;-75
2023/03/16 03:31:00;;;;;;;4.83;2.90;;;7.60;12.10;;;;;;5073941;28;20161;-76
2023/03/16 03:33:26;;;;;;;4.73;2.80;;;7.60;12.80;;;;;;5073904;28;20337;-76
2023/03/16 03:35:57;;;;;;;4.27;2.83;;;7.60;9.20;;;;;;5055660;28;20184;-76
2023/03/16 03:38:23;;;;;;;5.17;2.80;;;7.70;5.70;;;;;;5073552;28;20169;-75
2023/03/16 03:40:51;;;;;;;3.20;2.70;;;7.60;6.40;;;;;;5073337;28;20157;-75
2023/03/16 03:43:16;;;;;;;4.77;2.60;;;7.60;8.00;;;;;;5073252;28;20699;-76
2023/03/16 03:45:42;;;;;;;4.43;2.70;;;7.70;2.10;;;;;;5073431;28;20168;-75
2023/03/16 03:48:07;;;;;;;5.93;2.70;;;7.70;1.00;;;;;;5073141;28;20173;-75
2023/03/16 03:50:33;;;;;;;6.63;2.40;;;7.70;1.00;;;;;;5073250;28;20706;-75
2023/03/16 03:52:58;;;;;;;8.10;2.60;;;7.60;1.00;;;;;;5073477;28;20176;-75
2023/03/16 03:55:24;;;;;;;2.63;2.30;;;7.70;1.00;;;;;;5073046;28;20685;-76
2023/03/16 03:57:50;;;;;;;4.93;2.20;;;7.70;1.00;;;;;;5073260;28;20179;-76
2023/03/16 04:00:19;;;;;;;4.93;2.20;;;7.60;1.00;;;;;;5073502;28;20218;-75
2023/03/16 04:02:45;;;;;;;3.13;2.40;;;7.60;1.00;;;;;;5072895;28;20235;-76
2023/03/16 04:05:11;;;;;;;5.23;2.30;;;7.60;1.00;;;;;;5073166;28;20233;-76
2023/03/16 04:07:37;;;;;;;3.47;2.37;;;7.60;1.00;;;;;;5073204;28;20185;-76
2023/03/16 04:10:03;;;;;;;4.13;2.53;;;7.70;1.00;;;;;;5073162;28;20165;-75
2023/03/16 04:12:29;;;;;;;2.20;2.00;;;7.60;1.00;;;;;;5072978;28;20268;-75
2023/03/16 04:14:55;;;;;;;5.23;2.20;;;7.70;1.00;;;;;;5072859;28;20694;-75
2023/03/16 04:17:21;;;;;;;3.83;2.17;;;7.70;1.00;;;;;;5072714;28;20184;-76
2023/03/16 04:19:46;;;;;;;3.17;1.93;;;7.70;1.00;;;;;;5072610;28;20198;-74
2023/03/16 04:22:12;;;;;;;4.00;2.50;;;7.70;1.00;;;;;;5072952;28;20168;-75
2023/03/16 04:24:38;;;;;;;8.50;2.67;;;7.70;1.00;;;;;;5073047;28;20169;-75
2023/03/16 04:27:04;;;;;;;2.77;2.00;;;7.70;1.00;;;;;;5054449;28;20187;-74
2023/03/16 04:29:30;;;;;;;4.97;2.00;;;7.70;1.00;;;;;;5072937;28;20172;-75
2023/03/16 04:31:56;;;;;;;3.23;2.13;;;7.70;1.00;;;;;;5072483;28;20168;-75
2023/03/16 04:34:23;;;;;;;3.53;2.20;;;7.70;1.00;;;;;;5072660;28;20183;-75
2023/03/16 04:36:51;;;;;;;3.77;2.10;;;7.70;1.00;;;;;;5072988;28;20165;-75
2023/03/16 04:39:17;;;;;;;3.90;2.30;;;7.70;1.00;;;;;;5072403;28;20255;-74
2023/03/16 04:41:43;;;;;;;3.50;2.10;;;7.60;1.00;;;;;;5072972;28;20173;-75
2023/03/16 04:44:09;;;;;;;4.33;1.93;;;7.60;1.00;;;;;;5072293;28;20212;-74
2023/03/16 04:46:34;;;;;;;3.70;2.20;;;7.60;1.00;;;;;;5072159;28;20196;-75
2023/03/16 04:49:00;;;;;;;2.73;1.80;;;7.60;1.00;;;;;;5054788;28;20631;-75
2023/03/16 04:51:27;;;;;;;4.87;2.17;;;7.60;1.00;;;;;;5072496;28;20168;-77
2023/03/16 04:53:53;;;;;;;3.63;2.27;;;7.60;1.00;;;;;;5072306;28;20176;-75
2023/03/16 04:56:19;;;;;;;5.03;2.47;;;7.50;1.00;;;;;;5072613;28;20199;-75
2023/03/16 04:58:47;;;;;;;2.97;1.90;;;7.50;1.00;;;;;;5072464;28;20198;-75
2023/03/16 05:01:12;;;;;;;2.50;2.27;;;7.50;1.00;;;;;;5072325;28;20624;-75
2023/03/16 05:03:40;;;;;;;3.70;1.80;;;7.40;2.50;;;;;;5072469;28;20211;-75
2023/03/16 05:06:06;;;;;;;3.53;2.30;;;7.30;4.00;;;;;;5072077;28;20287;-77
2023/03/16 05:08:32;;;;;;;4.80;2.50;;;7.40;8.30;;;;;;5072385;28;20240;-75
2023/03/16 05:10:58;;;;;;;5.17;2.07;;;7.40;7.60;;;;;;5074335;28;20202;-76
2023/03/16 05:13:23;;;;;;;2.60;2.13;;;7.30;4.70;;;;;;5075944;28;20165;-75
2023/03/16 05:15:52;;;;;;;4.03;2.03;;;7.30;3.30;;;;;;5075771;28;20227;-76
2023/03/16 05:18:18;;;;;;;3.00;2.37;;;7.30;8.80;;;;;;5076076;28;20167;-76
2023/03/16 05:20:44;;;;;;;2.90;2.40;;;7.30;3.80;;;;;;5075837;28;20179;-76
2023/03/16 05:23:10;;;;;;;5.67;2.40;;;7.30;4.60;;;;;;5075264;28;20208;-75
2023/03/16 05:25:36;;;;;;;5.67;2.30;;;7.30;1.00;;;;;;5075756;28;20538;-75
2023/03/16 05:28:02;;;;;;;4.90;2.20;;;7.30;8.10;;;;;;5075777;28;20177;-75
2023/03/16 05:30:28;;;;;;;4.63;2.20;;;7.30;1.00;;;;;;5074883;28;20636;-75
2023/03/16 05:32:56;;;;;;;3.77;2.30;;;7.40;1.40;;;;;;5075408;28;20180;-75
2023/03/16 05:35:22;;;;;;;4.20;2.00;;;7.40;1.00;;;;;;5075657;28;20165;-75
2023/03/16 05:37:48;;;;;;;4.10;2.30;;;7.40;1.00;;;;;;5075424;28;20173;-75
2023/03/16 05:40:17;;;;;;;3.33;2.17;;;7.40;1.00;;;;;;5075650;28;20628;-75
2023/03/16 05:42:44;;;;;;;4.50;2.13;;;7.40;1.00;;;;;;5075190;28;20200;-75
2023/03/16 05:45:11;;;;;;;7.53;2.20;;;7.50;1.00;;;;;;5056577;28;20176;-75
2023/03/16 05:47:37;;;;;;;3.07;1.77;;;7.60;1.00;;;;;;5075432;28;20230;-75
2023/03/16 05:50:04;;;;;;;4.03;2.10;;;7.60;1.00;;;;;;5075269;28;20173;-74
2023/03/16 05:52:30;;;;;;;5.07;2.00;;;7.60;1.00;;;;;;5074357;28;20184;-75
2023/03/16 05:54:55;;;;;;;4.27;2.03;;;7.60;1.00;;;;;;5074752;28;20176;-75
2023/03/16 05:57:21;;;;;;;3.73;2.00;;;7.60;1.00;;;;;;5074913;28;20600;-75
2023/03/16 05:59:47;;;;;;;5.07;2.17;;;7.70;1.00;;;;;;5074279;28;20173;-75
2023/03/16 06:02:16;;;;;;;9.43;2.30;;;7.70;1.00;;;;;;5073889;28;20171;-75
2023/03/16 06:04:41;;;;;;;5.67;2.40;;;7.70;1.00;;;;;;5074337;28;20188;-74
2023/03/16 06:07:10;;;;;;;7.37;2.40;;;7.70;1.00;;;;;;5074133;28;20617;-75
2023/03/16 06:09:36;;;;;;;3.97;2.50;;;7.80;1.00;;;;;;5074130;28;20168;-75
2023/03/16 06:12:04;;;;;;;5.43;2.10;;;7.80;1.00;;;;;;5073844;28;20169;-75
2023/03/16 06:14:30;;;;;;;3.73;2.40;;;7.80;1.00;;;;;;5073493;28;20698;-75
2023/03/16 06:16:56;;;;;;;2.60;1.87;;;7.90;1.00;;;;;;5073994;28;20281;-76
2023/03/16 06:19:21;;;;;;;2.83;2.23;;;8.00;1.00;;;;;;5073312;28;20175;-75
2023/03/16 06:21:49;;;;;;;2.27;1.60;;;8.00;1.00;;;;;;5072594;28;20172;-75
2023/03/16 06:24:15;;;;;;;3.97;1.97;;;8.00;1.00;;;;;;5074328;28;20208;-75
2023/03/16 06:26:41;;;;;;;2.17;1.80;;;8.00;1.00;;;;;;5073689;28;20172;-75
2023/03/16 06:29:06;;;;;;;5.83;2.37;;;8.00;1.00;;;;;;5073804;28;20304;-76
2023/03/16 06:31:32;;;;;;;4.03;2.33;;;8.00;1.00;;;;;;5074248;28;20216;-76
2023/03/16 06:33:59;;;;;;;4.50;1.80;;;8.00;1.00;;;;;;5073400;28;20169;-75
2023/03/16 06:36:24;;;;;;;3.30;1.97;;;8.00;1.00;;;;;;5073901;28;20169;-75
2023/03/16 06:38:53;;;;;;;4.47;2.07;;;8.00;1.00;;;;;;5074152;28;20306;-76
2023/03/16 06:41:18;;;;;;;3.30;1.67;;;8.00;1.00;;;;;;5073372;28;20298;-76
2023/03/16 06:43:47;;;;;;;4.50;2.50;;;8.00;1.00;;;;;;5073506;28;20679;-76
2023/03/16 06:46:12;;;;;;;2.47;2.03;;;8.10;1.00;;;;;;5073508;28;20177;-76
2023/03/16 06:48:38;;;;;;;5.83;2.53;;;8.10;1.00;;;;;;5054955;28;20642;-74
2023/03/16 06:51:06;;;;;;;5.57;2.60;;;8.10;1.00;;;;;;5073518;28;20173;-75
2023/03/16 06:53:32;;;;;;;6.63;2.47;;;8.20;1.00;;;;;;5073170;28;20576;-74
2023/03/16 06:55:57;;;;;;;5.93;2.30;;;8.20;1.00;;;;;;5073767;28;20176;-76
2023/03/16 06:58:23;;;;;;;3.67;2.03;;;8.30;1.00;;;;;;5072196;28;20200;-76
2023/03/16 07:00:48;;;;;;;3.33;1.90;;;8.30;1.00;;;;;;5072981;28;20176;-75
2023/03/16 07:03:14;;;;;;;3.57;2.10;;;8.30;1.00;;;;;;5073102;28;20594;-75
2023/03/16 07:05:39;;;;;;;3.87;1.90;;;8.40;1.00;;;;;;5072760;28;20196;-76
2023/03/16 07:08:05;;;;;;;3.57;2.20;;;8.40;1.00;;;;;;5072903;28;20609;-76
2023/03/16 07:10:34;;;;;;;2.80;1.80;;;8.40;1.00;;;;;;5072954;28;20217;-76
2023/03/16 07:12:59;;;;;;;5.63;2.10;;;8.50;1.00;;;;;;5055398;28;20173;-75
2023/03/16 07:15:25;;;;;;;2.93;2.13;;;8.70;1.00;;;;;;5072182;28;20347;-76
2023/03/16 07:17:51;;;;;;;3.40;2.20;;;8.60;1.00;;;;;;5072123;28;20200;-75
2023/03/16 07:20:17;;;;;;;5.67;1.93;;;8.70;1.00;;;;;;5072725;28;20168;-76
2023/03/16 07:22:43;;;;;;;3.13;2.27;;;8.80;1.00;;;;;;5054597;28;20291;-77
2023/03/16 07:25:10;;;;;;;5.10;2.13;;;8.90;1.00;;;;;;5072387;28;20197;-76
2023/03/16 07:27:36;;;;;;;4.77;1.93;;;9.00;1.00;;;;;;5072066;28;20173;-75
2023/03/16 07:30:03;;;;;;;4.20;2.50;;;9.20;1.00;;;;;;5072220;28;20579;-78
2023/03/16 07:32:29;;;;;;;4.80;2.20;;;9.90;99.90;;;;;;5070743;28;20180;-75
2023/03/16 07:34:56;;;;;;;2.83;2.10;;;10.40;99.90;;;;;;5067042;28;20666;-77
2023/03/16 07:37:22;;;;;;;8.90;2.30;;;11.30;1.00;;;;;;5071768;28;20705;-77
2023/03/16 07:39:48;;;;;;;4.37;2.33;;;12.10;99.90;;;;;;5074040;28;20181;-78
2023/03/16 07:42:13;;;;;;;2.60;2.37;;;13.20;1.00;;;;;;5074449;28;20172;-78
2023/03/16 07:44:39;;;;;;;5.10;2.40;;;14.00;99.90;;;;;;5070944;28;20248;-76
2023/03/16 07:47:05;;;;;;;3.70;1.77;;;14.60;1.00;;;;;;5071448;28;20522;-78
2023/03/16 07:49:31;;;;;;;6.67;2.33;;;14.70;1.00;;;;;;5071278;28;20574;-74
2023/03/16 07:51:57;;;;;;;7.03;2.30;;;14.80;1.00;;;;;;5070272;28;20176;-75
2023/03/16 07:54:25;;;;;;;5.47;2.23;;;15.10;1.00;;;;;;5066736;28;20176;-76
2023/03/16 07:56:51;;;;;;;6.03;2.30;;;15.70;99.90;;;;;;5070119;28;20204;-78
2023/03/16 07:59:16;;;;;;;3.57;2.30;;;15.70;56.20;;;;;;5070984;28;20180;-78
2023/03/16 08:01:43;;;;;;;4.20;2.10;;;15.80;81.50;;;;;;5071487;28;20330;-77
2023/03/16 08:04:12;;;;;;;4.10;2.67;;;15.70;82.20;;;;;;5071315;28;20239;-74
2023/03/16 08:06:37;;;;;;;4.17;2.27;;;15.40;82.30;;;;;;5071648;28;20169;-73
2023/03/16 08:09:03;;;;;;;3.67;2.10;;;14.70;83.60;;;;;;5071882;28;20528;-76
2023/03/16 08:11:28;;;;;;;2.60;2.40;;;14.30;84.70;;;;;;5066733;28;20641;-77
2023/03/16 08:13:55;;;;;;;7.80;2.10;;;14.00;85.30;;;;;;5072807;28;20538;-75
2023/03/16 08:16:28;;;;;;;4.47;2.40;;;14.30;86.10;;;;;;5077012;28;20356;-77
2023/03/16 08:19:00;;;;;;;5.07;2.37;;;13.90;85.70;;;;;;5070859;28;20242;-77
2023/03/16 08:21:27;;;;;;;4.10;2.03;;;14.10;85.80;;;;;;5052800;28;20267;-78
2023/03/16 08:23:52;;;;;;;4.50;2.23;;;14.00;85.40;;;;;;5057772;28;20226;-74
2023/03/16 08:26:22;;;;;;;3.80;1.70;;;14.10;85.40;;;;;;5061523;28;20176;-75
2023/03/16 08:28:50;;;;;;;5.27;2.03;;;13.40;85.00;;;;;;5070166;28;20180;-77
2023/03/16 08:31:17;;;;;;;3.83;2.23;;;13.20;86.30;;;;;;5066618;28;20257;-75
2023/03/16 08:33:45;;;;;;;3.70;2.20;;;13.20;82.90;;;;;;5069385;28;20180;-75
2023/03/16 08:36:14;;;;;;;3.80;1.93;;;13.70;85.00;;;;;;5070391;28;20172;-75
2023/03/16 08:38:40;;;;;;;5.07;2.10;;;13.90;84.90;;;;;;5069027;28;20263;-75
2023/03/16 08:41:06;;;;;;;4.07;2.00;;;14.10;84.40;;;;;;5068060;28;20188;-76
2023/03/16 08:43:32;;;;;;;2.60;1.90;;;14.60;83.50;;;;;;5067474;28;20208;-75
2023/03/16 08:45:58;;;;;;;6.87;2.07;;;14.60;81.90;;;;;;5068748;28;20305;-76
2023/03/16 08:48:27;;;;;;;6.57;2.50;;;14.80;82.50;;;;;;5056066;28;20220;-76
2023/03/16 08:50:54;;;;;;;1.77;1.60;;;14.40;83.90;;;;;;5081515;28;20187;-76
2023/03/16 08:53:20;;;;;;;5.03;2.10;;;14.50;81.80;;;;;;5070053;28;20181;-76
2023/03/16 08:55:46;;;;;;;5.47;2.20;;;14.60;82.80;;;;;;5052194;28;20179;-76
2023/03/16 08:58:12;;;;;;;2.60;1.87;;;14.60;82.30;;;;;;5054513;28;20600;-75
2023/03/16 09:00:42;;;;;;;3.87;1.90;;;14.20;80.90;;;;;;5062884;28;20184;-76
2023/03/16 09:03:09;;;;;;;5.03;2.20;;;14.20;82.80;;;;;;5075464;28;20204;-80
2023/03/16 09:05:34;;;;;;;6.97;2.10;;;13.90;83.50;;;;;;5074018;28;20164;-77
2023/03/16 09:08:00;;;;;;;2.67;1.67;;;13.60;84.60;;;;;;5072417;28;20306;-76
2023/03/16 09:10:26;;;;;;;3.07;1.90;;;13.50;84.20;;;;;;5071079;28;20507;-75
2023/03/16 09:12:52;;;;;;;2.60;1.80;;;13.00;84.90;;;;;;5073116;28;20224;-76
2023/03/16 09:15:19;;;;;;;2.00;1.70;;;12.90;85.50;;;;;;5074435;28;20227;-75
2023/03/16 09:17:46;;;;;;;3.20;1.80;;;12.60;85.30;;;;;;5052830;28;20184;-75
2023/03/16 09:20:17;;;;;;;2.20;1.83;;;12.30;86.60;;;;;;5051875;28;20195;-76
2023/03/16 09:22:43;;;;;;;4.10;1.90;;;12.20;86.90;;;;;;5074509;28;20227;-74
2023/03/16 09:25:10;;;;;;;2.67;1.70;;;12.40;86.10;;;;;;5061697;28;20650;-74
2023/03/16 09:27:36;;;;;;;3.87;1.70;;;12.30;83.90;;;;;;5056567;28;20192;-75
2023/03/16 09:30:06;;;;;;;5.37;2.63;;;12.30;82.50;;;;;;5071966;28;20184;-74
2023/03/16 09:32:33;;;;;;;4.87;2.00;;;12.50;73.60;;;;;;5069237;28;20175;-72
2023/03/16 09:34:59;;;;;;;7.60;1.90;;;12.80;77.60;;;;;;5070870;28;20240;-75
2023/03/16 09:37:25;;;;;;;3.67;1.80;;;12.90;82.50;;;;;;5070175;28;20689;-75
2023/03/16 09:39:51;;;;;;;2.97;1.70;;;12.90;83.00;;;;;;5068497;28;20174;-75
2023/03/16 09:42:28;;;;;;;1.87;1.67;;;13.00;82.80;;;;;;5068654;28;20550;-76
2023/03/16 09:45:04;;;;;;;3.13;1.50;;;13.00;84.50;;;;;;5053797;28;21035;-78
2023/03/16 09:47:33;;;;;;;5.47;1.80;;;13.10;84.60;;;;;;5062660;28;20272;-78
2023/03/16 09:50:03;;;;;;;2.70;1.30;;;13.40;85.20;;;;;;5053381;28;20173;-76
2023/03/16 09:52:54;;;;;;;2.23;1.50;;;13.60;84.30;;;;;;5072497;28;20176;-77
2023/03/16 09:55:37;;;;;;;2.37;1.53;;;13.70;84.40;;;;;;5055591;28;20203;-75
2023/03/16 09:58:15;;;;;;;3.53;1.50;;;14.00;83.20;;;;;;5068010;28;20188;-76
2023/03/16 10:00:57;;;;;;;2.20;1.40;;;14.50;81.80;;;;;;5067033;28;20687;-77
2023/03/16 10:03:57;;;;;;;3.03;2.07;;;14.80;80.20;;;;;;5074876;28;20219;-75
2023/03/16 10:06:27;;;;;;;1.80;1.20;;;15.50;79.40;;;;;;5074295;28;20274;-76
2023/03/16 10:09:30;;;;;;;9.37;1.60;;;15.40;76.30;;;;;;5063914;28;20188;-76
2023/03/16 10:11:59;;;;;;;1.67;1.50;;;15.50;75.80;;;;;;5053582;28;20620;-79
2023/03/16 10:14:33;;;;;;;6.60;1.67;;;15.90;76.20;;;;;;5071977;28;20220;-78
2023/03/16 10:17:08;;;;;;;3.97;1.73;;;16.90;72.20;;;;;;5072007;28;20176;-78
2023/03/16 10:19:45;;;;;;;3.92;1.58;;;17.70;69.90;;;;;;5063010;28;20173;-77
2023/03/16 10:22:33;;;;;;;2.65;1.40;;;18.40;65.40;;;;;;5072899;28;20172;-77
2023/03/16 10:25:11;;;;;;;2.30;1.55;;;17.40;63.90;;;;;;5061843;28;20181;-77
2023/03/16 10:27:41;;;;;;;3.20;1.60;;;17.60;63.20;;;;;;5072176;28;20580;-78
2023/03/16 10:30:18;;;;;;;2.90;1.85;;;18.10;62.00;;;;;;5072497;28;20204;-79
2023/03/16 10:32:44;;;;;;;3.40;1.58;;;18.90;62.60;;;;;;5074392;28;20167;-78
2023/03/16 10:35:47;;;;;;;3.90;1.50;;;19.10;57.60;;;;;;5072718;28;20181;-78
2023/03/16 10:38:50;;;;;;;3.60;1.27;;;19.20;56.70;;;;;;5055992;28;20234;-77
2023/03/16 10:41:19;;;;;;;3.78;1.20;;;17.70;57.80;;;;;;5069706;28;20179;-77
2023/03/16 10:43:56;;;;;;;3.78;1.38;;;17.40;59.20;;;;;;5051983;28;20223;-77
2023/03/16 10:46:24;;;;;;;6.47;4.38;;;17.70;58.50;;;;;;5070744;28;20234;-75
2023/03/16 10:48:53;;;;;;;4.43;1.80;;;17.80;58.50;;;;;;5072539;28;20490;-75
2023/03/16 10:51:24;;;;;;;1.52;1.30;;;17.90;57.60;;;;;;5072095;28;20662;-76
2023/03/16 10:53:55;;;;;;;4.90;1.60;;;17.80;58.40;;;;;;5067878;28;20259;-74
2023/03/16 10:56:24;;;;;;;1.45;1.23;;;17.70;58.50;;;;;;5069039;28;20256;-75
2023/03/16 10:58:51;;;;;;;3.75;1.35;;;17.30;57.90;;;;;;5071761;28;20168;-75
2023/03/16 11:01:25;;;;;;;5.40;2.00;;;17.30;58.50;;;;;;5070828;28;20185;-75
2023/03/16 11:03:55;;;;;;;3.90;1.60;;;17.30;58.20;;;;;;5072096;28;20219;-75
2023/03/16 11:06:23;;;;;;;3.50;1.45;;;17.70;58.50;;;;;;5053155;28;20549;-74
2023/03/16 11:08:51;;;;;;;2.30;1.10;;;17.70;57.20;;;;;;5063896;28;20230;-75
2023/03/16 11:11:24;;;;;;;4.35;1.40;;;17.70;55.70;;;;;;5061168;28;20184;-75
2023/03/16 11:14:00;;;;;;;2.78;1.52;;;17.40;56.30;;;;;;5070801;28;20191;-76
2023/03/16 11:16:35;;;;;;;2.67;1.73;;;17.30;56.30;;;;;;5067631;28;20192;-76
2023/03/16 11:19:28;;;;;;;2.75;1.80;;;17.60;56.80;;;;;;5071855;28;20973;-77
2023/03/16 11:22:12;;;;;;;4.85;1.85;;;17.40;56.70;;;;;;5072974;28;20184;-78
2023/03/16 11:24:59;;;;;;;3.10;1.65;;;17.30;56.70;;;;;;5070060;28;20184;-74
2023/03/16 11:27:33;;;;;;;5.38;1.95;;;17.80;56.00;;;;;;5060758;28;20233;-74
2023/03/16 11:30:45;;;;;;;3.00;1.95;;;18.10;56.30;;;;;;5054876;28;20702;-78
2023/03/16 11:33:13;;;;;;;1.70;1.60;;;18.30;55.60;;;;;;4998398;28;20709;-78
2023/03/16 11:36:05;;;;;;;2.33;1.30;;;17.90;55.10;;;;;;5055113;28;20170;-78
2023/03/16 11:38:35;;;;;;;3.50;1.13;;;17.30;55.00;;;;;;5034649;28;20227;-75
2023/03/16 11:41:14;;;;;;;2.05;1.33;;;16.60;56.40;;;;;;5060038;28;20176;-76
2023/03/16 11:43:54;;;;;;;1.35;1.10;;;16.30;57.60;;;;;;5070366;28;20650;-74
2023/03/16 11:46:27;;;;;;;2.50;1.30;;;16.00;57.10;;;;;;5052243;28;20248;-78
2023/03/16 11:49:13;;;;;;;2.23;1.60;;;15.60;58.00;;;;;;5065136;28;20199;-76
2023/03/16 11:52:05;;;;;;;2.70;1.33;;;15.10;59.60;;;;;;5072420;28;20160;-76
2023/03/16 11:54:52;;;;;;;2.50;1.30;;;15.20;59.70;;;;;;5068306;28;20172;-75
2023/03/16 11:57:31;;;;;;;1.80;1.03;;;15.20;58.60;;;;;;5063818;28;20214;-74
2023/03/16 12:00:03;;;;;;;3.10;1.00;;;15.20;58.90;;;;;;5069995;28;20188;-75
2023/03/16 12:02:38;;;;;;;2.90;1.40;;;15.50;58.10;;;;;;5071582;28;20177;-74
2023/03/16 12:05:35;;;;;;;3.70;1.40;;;15.40;58.00;;;;;;5071645;28;20188;-75
2023/03/16 12:08:10;;;;;;;2.40;1.40;;;15.60;57.60;;;;;;5031585;28;20636;-77
2023/03/16 12:10:56;;;;;;;1.73;1.63;;;15.90;57.80;;;;;;5063091;28;20198;-74
2023/03/16 12:13:31;;;;;;;4.43;1.50;;;15.70;58.50;;;;;;5060060;28;20198;-75
2023/03/16 12:16:09;;;;;;;1.90;1.02;;;15.90;58.70;;;;;;5058504;28;20228;-77
2023/03/16 12:18:44;;;;;;;5.60;1.47;;;16.00;58.00;;;;;;5064130;28;20173;-75
2023/03/16 12:21:18;;;;;;;3.53;1.50;;;16.10;59.70;;;;;;5050140;28;20623;-77
2023/03/16 12:23:58;;;;;;;2.70;1.50;;;16.30;59.50;;;;;;5070304;28;20216;-76
2023/03/16 12:26:28;;;;;;;1.53;1.27;;;15.60;60.30;;;;;;5070476;28;20310;-78
2023/03/16 12:28:56;;;;;;;2.73;1.73;;;15.20;61.20;;;;;;5070583;28;20172;-77
2023/03/16 12:31:40;;;;;;;1.33;1.23;;;15.10;63.00;;;;;;5070131;28;20198;-77
2023/03/16 12:34:39;;;;;;;3.50;1.60;;;15.20;63.50;;;;;;5070398;28;20668;-76
2023/03/16 12:37:11;;;;;;;4.23;1.40;;;15.20;62.20;;;;;;5066033;28;20184;-75
2023/03/16 12:39:50;;;;;;;2.50;1.63;;;15.10;62.40;;;;;;5051232;28;20666;-77
2023/03/16 12:42:48;;;;;;;6.30;1.67;;;14.70;60.80;;;;;;5051619;28;20180;-75
2023/03/16 12:45:52;;;;;;;3.73;1.70;;;14.30;62.50;;;;;;5067335;28;20636;-75
2023/03/16 12:48:31;;;;;;;2.83;1.40;;;14.70;64.10;;;;;;5072841;28;20206;-73
2023/03/16 12:51:02;;;;;;;4.57;3.87;;;15.10;63.30;;;;;;5062839;28;20196;-73
2023/03/16 12:53:45;;;;;;;3.10;1.50;;;15.30;61.90;;;;;;5051876;28;20176;-73
2023/03/16 12:56:18;;;;;;;2.83;1.33;;;15.10;61.60;;;;;;5077454;28;20259;-75
2023/03/16 12:58:49;;;;;;;4.10;1.77;;;15.10;61.60;;;;;;5088276;28;20179;-72
2023/03/16 13:01:18;;;;;;;5.03;1.90;;;15.00;61.20;;;;;;5050686;28;20188;-74
2023/03/16 13:03:57;;;;;;;1.90;1.50;;;15.00;62.20;;;;;;5022500;28;20360;-73
2023/03/16 13:06:32;;;;;;;4.03;1.07;;;14.80;60.80;;;;;;5027108;28;20854;-75
2023/03/16 13:08:59;;;;;;;2.93;1.00;;;14.80;61.40;;;;;;5068758;28;20702;-72
2023/03/16 13:11:26;;;;;;;4.00;1.40;;;14.80;61.00;;;;;;5069658;28;20169;-72
2023/03/16 13:14:00;;;;;;;1.37;1.23;;;15.00;62.10;;;;;;5066222;28;20204;-74